createdAt,value
2023-03-02T19:26:43.208Z,22.25
2023-03-02T19:27:47.324Z,22.22
2023-03-02T19:28:51.507Z,22.22
2023-03-02T19:29:55.645Z,22.23
2023-03-02T19:30:59.763Z,22.23
2023-03-02T19:32:04.049Z,22.19
2023-03-02T19:33:08.404Z,22.2
2023-03-02T19:34:12.567Z,22.22
2023-03-02T19:35:16.708Z,22.18
2023-03-02T19:36:21.225Z,22.18
2023-03-02T19:37:25.352Z,22.21
2023-03-02T19:38:29.460Z,22.21
2023-03-02T19:39:33.598Z,22.19
2023-03-02T19:40:37.756Z,22.19
2023-03-02T19:41:41.944Z,22.15
2023-03-02T19:42:46.075Z,22.15
2023-03-02T19:43:50.197Z,22.17
2023-03-02T19:44:54.326Z,22.16
2023-03-02T19:45:58.534Z,22.16
2023-03-02T19:47:02.851Z,22.15
2023-03-02T19:48:06.958Z,22.15
2023-03-02T19:49:11.075Z,22.16
2023-03-02T19:50:15.197Z,22.16
2023-03-02T19:51:19.280Z,22.16
2023-03-02T19:52:23.452Z,22.15
2023-03-02T19:53:27.603Z,22.13
2023-03-02T19:54:31.890Z,22.12
2023-03-02T19:55:35.983Z,22.12
2023-03-02T19:56:40.098Z,22.1
2023-03-02T19:57:44.422Z,22.11
2023-03-02T19:58:48.721Z,22.13
2023-03-02T19:59:53.006Z,22.13
2023-03-02T20:00:57.195Z,22.13
2023-03-02T20:02:01.416Z,22.12
2023-03-02T20:03:05.606Z,22.12
2023-03-02T20:04:09.736Z,22.09
2023-03-02T20:05:13.899Z,22.1
2023-03-02T20:06:18.045Z,22.07
2023-03-02T20:07:22.140Z,22.07
2023-03-02T20:08:26.322Z,22.07
2023-03-02T20:09:30.570Z,22.06
2023-03-02T20:10:34.671Z,22.04
2023-03-02T20:11:38.830Z,22.06
2023-03-02T20:12:42.904Z,22.04
2023-03-02T20:13:47.043Z,22.06
2023-03-02T20:14:51.185Z,22.07
2023-03-02T20:15:55.295Z,22.07
2023-03-02T20:16:59.476Z,22.08
2023-03-02T20:18:03.857Z,22.07
2023-03-02T20:19:07.976Z,22.06
2023-03-02T20:20:13.905Z,22.07
2023-03-02T20:21:18.015Z,22.06
2023-03-02T20:22:22.096Z,22.03
2023-03-02T20:23:26.186Z,22.03
2023-03-02T20:24:30.295Z,22.04
2023-03-02T20:25:34.486Z,22.03
2023-03-02T20:26:38.572Z,22.05
2023-03-02T20:27:42.674Z,22.05
2023-03-02T20:28:46.801Z,22.02
2023-03-02T20:29:50.951Z,22.01
2023-03-02T20:30:55.158Z,22.04
2023-03-02T20:31:59.531Z,22
2023-03-02T20:33:03.819Z,22.02
2023-03-02T20:34:07.932Z,22.01
2023-03-02T20:35:12.049Z,21.95
2023-03-02T20:36:16.141Z,22
2023-03-02T20:37:20.250Z,21.99
2023-03-02T20:38:24.376Z,21.99
2023-03-02T20:39:31.676Z,21.98
2023-03-02T20:40:35.795Z,21.97
2023-03-02T20:41:39.944Z,21.97
2023-03-02T20:42:44.040Z,21.96
2023-03-02T20:43:48.152Z,21.92
2023-03-02T20:44:52.307Z,21.95
2023-03-02T20:45:56.559Z,21.94
2023-03-02T20:47:00.839Z,21.94
2023-03-02T20:48:04.941Z,21.93
2023-03-02T20:49:09.037Z,21.75
2023-03-02T20:50:13.131Z,21.89
2023-03-02T20:51:17.273Z,21.92
2023-03-02T20:52:21.496Z,21.91
2023-03-02T20:53:25.599Z,21.9
2023-03-02T20:54:29.709Z,21.9
2023-03-02T20:55:33.844Z,21.89
2023-03-02T20:56:37.986Z,21.88
2023-03-02T20:57:42.094Z,21.88
2023-03-02T20:58:46.418Z,21.87
2023-03-02T20:59:50.548Z,21.87
2023-03-02T21:00:54.671Z,21.83
2023-03-02T21:01:58.848Z,21.85
2023-03-02T21:03:03.006Z,21.84
2023-03-02T21:04:07.147Z,21.84
2023-03-02T21:05:11.247Z,21.84
2023-03-02T21:06:15.355Z,21.83
2023-03-02T21:07:19.525Z,21.83
2023-03-02T21:08:23.675Z,21.83
2023-03-02T21:09:27.784Z,21.82
2023-03-02T21:10:31.958Z,21.79
2023-03-02T21:11:36.416Z,21.78
2023-03-02T21:12:40.917Z,21.81
2023-03-02T21:13:45.423Z,21.77
2023-03-02T21:14:49.603Z,21.8
2023-03-02T21:15:53.738Z,21.8
2023-03-02T21:16:58.074Z,21.78
2023-03-02T21:18:02.247Z,21.8
2023-03-02T21:19:06.393Z,21.79
2023-03-02T21:20:10.480Z,21.76
2023-03-02T21:21:14.594Z,21.78
2023-03-02T21:22:18.712Z,21.75
2023-03-02T21:23:22.810Z,21.77
2023-03-02T21:24:26.919Z,21.77
2023-03-02T21:25:31.013Z,21.74
2023-03-02T21:26:35.136Z,21.77
2023-03-02T21:27:39.223Z,21.76
2023-03-02T21:28:43.340Z,21.76
2023-03-02T21:29:47.427Z,21.75
2023-03-02T21:30:51.574Z,21.72
2023-03-02T21:31:55.860Z,21.75
2023-03-02T21:33:00.112Z,21.78
2023-03-02T21:34:04.370Z,21.78
2023-03-02T21:35:08.518Z,21.76
2023-03-02T21:36:12.634Z,21.78
2023-03-02T21:37:16.736Z,21.79
2023-03-02T21:39:22.216Z,21.79
2023-03-02T21:40:26.335Z,21.76
2023-03-02T21:41:32.480Z,21.79
2023-03-02T21:42:36.560Z,21.77
2023-03-02T21:43:40.725Z,21.79
2023-03-02T21:44:44.991Z,21.79
2023-03-02T21:45:49.121Z,21.76
2023-03-02T21:46:53.310Z,21.79
2023-03-02T21:47:57.397Z,21.79
2023-03-02T21:49:01.506Z,21.78
2023-03-02T21:50:05.636Z,21.78
2023-03-02T21:51:09.769Z,21.78
2023-03-02T21:52:13.937Z,21.77
2023-03-02T21:53:18.024Z,21.73
2023-03-02T21:54:22.122Z,21.77
2023-03-02T21:55:26.498Z,21.76
2023-03-02T21:56:30.612Z,21.74
2023-03-02T21:57:34.708Z,21.77
2023-03-02T21:58:38.805Z,21.73
2023-03-02T21:59:43.129Z,21.71
2023-03-02T22:00:47.472Z,21.76
2023-03-02T22:01:51.621Z,21.76
2023-03-02T22:02:55.943Z,21.76
2023-03-02T22:04:00.093Z,21.77
2023-03-02T22:05:04.220Z,21.75
2023-03-02T22:06:08.371Z,21.75
2023-03-02T22:07:12.483Z,21.78
2023-03-02T22:08:16.575Z,21.78
2023-03-02T22:09:20.723Z,21.77
2023-03-02T22:10:24.806Z,21.74
2023-03-02T22:11:28.939Z,21.72
2023-03-02T22:12:33.035Z,21.74
2023-03-02T22:13:37.149Z,21.7
2023-03-02T22:14:41.247Z,21.69
2023-03-02T22:15:45.420Z,21.73
2023-03-02T22:16:49.790Z,21.69
2023-03-02T22:17:53.921Z,21.72
2023-03-02T22:18:58.019Z,21.7
2023-03-02T22:20:02.129Z,21.66
2023-03-02T22:21:06.243Z,21.69
2023-03-02T22:22:10.359Z,21.68
2023-03-02T22:23:14.448Z,21.68
2023-03-02T22:24:18.683Z,21.67
2023-03-02T22:25:22.786Z,21.63
2023-03-02T22:26:26.886Z,21.65
2023-03-02T22:27:31.002Z,21.65
2023-03-02T22:28:35.103Z,21.64
2023-03-02T22:29:39.435Z,21.61
2023-03-02T22:30:43.577Z,21.63
2023-03-02T22:31:47.732Z,21.61
2023-03-02T22:32:51.857Z,21.6
2023-03-02T22:33:55.955Z,21.63
2023-03-02T22:35:00.064Z,21.6
2023-03-02T22:36:04.142Z,21.62
2023-03-02T22:37:08.244Z,21.62
2023-03-02T22:38:12.374Z,21.63
2023-03-02T22:39:16.486Z,21.6
2023-03-02T22:40:20.587Z,21.6
2023-03-02T22:41:24.834Z,21.6
2023-03-02T22:42:28.960Z,21.56
2023-03-02T22:43:33.121Z,21.59
2023-03-02T22:44:37.278Z,21.59
2023-03-02T22:45:41.422Z,21.58
2023-03-02T22:46:45.580Z,21.58
2023-03-02T22:47:49.929Z,21.58
2023-03-02T22:48:54.070Z,21.58
2023-03-02T22:49:58.193Z,21.57
2023-03-02T22:51:02.350Z,21.57
2023-03-02T22:52:06.495Z,21.55
2023-03-02T22:53:10.591Z,21.52
2023-03-02T22:54:14.717Z,21.55
2023-03-02T22:55:18.810Z,21.54
2023-03-02T22:56:22.894Z,21.51
2023-03-02T22:57:27.076Z,21.53
2023-03-02T22:58:31.270Z,21.54
2023-03-02T22:59:35.426Z,21.53
2023-03-02T23:00:39.600Z,21.51
2023-03-02T23:01:43.862Z,21.54
2023-03-02T23:02:48.039Z,21.54
2023-03-02T23:03:52.189Z,21.53
2023-03-02T23:04:56.387Z,21.53
2023-03-02T23:06:00.496Z,21.51
2023-03-02T23:07:04.606Z,21.51
2023-03-02T23:08:08.676Z,21.48
2023-03-02T23:09:12.797Z,21.51
2023-03-02T23:10:16.912Z,21.51
2023-03-02T23:11:21.020Z,21.5
2023-03-02T23:12:25.158Z,21.5
2023-03-02T23:13:29.321Z,21.49
2023-03-02T23:14:33.426Z,21.48
2023-03-02T23:15:37.539Z,21.48
2023-03-02T23:16:41.717Z,21.48
2023-03-02T23:17:46.009Z,21.48
2023-03-02T23:18:50.131Z,21.43
2023-03-02T23:19:54.245Z,21.46
2023-03-02T23:20:58.385Z,21.46
2023-03-02T23:22:02.479Z,21.43
2023-03-02T23:23:06.630Z,21.44
2023-03-02T23:24:10.723Z,21.45
2023-03-02T23:25:14.834Z,21.41
2023-03-02T23:26:18.942Z,21.44
2023-03-02T23:27:23.082Z,21.44
2023-03-02T23:28:27.205Z,21.43
2023-03-02T23:29:31.322Z,21.42
2023-03-02T23:30:35.450Z,21.39
2023-03-02T23:31:39.648Z,21.43
2023-03-02T23:32:43.952Z,21.42
2023-03-02T23:33:48.320Z,21.42
2023-03-02T23:34:52.415Z,21.42
2023-03-02T23:35:56.675Z,21.42
2023-03-02T23:37:01.033Z,21.41
2023-03-02T23:38:05.167Z,21.41
2023-03-02T23:39:09.262Z,21.41
2023-03-02T23:40:13.420Z,21.38
2023-03-02T23:41:17.573Z,21.37
2023-03-02T23:42:21.837Z,21.36
2023-03-02T23:43:25.978Z,21.38
2023-03-02T23:44:30.098Z,21.35
2023-03-02T23:45:34.251Z,21.35
2023-03-02T23:46:38.455Z,21.35
2023-03-02T23:47:42.578Z,21.34
2023-03-02T23:48:46.715Z,21.33
2023-03-02T23:49:50.846Z,21.33
2023-03-02T23:50:54.981Z,21.36
2023-03-02T23:51:59.110Z,21.31
2023-03-02T23:53:03.277Z,21.35
2023-03-02T23:54:07.442Z,21.32
2023-03-02T23:55:11.601Z,21.35
2023-03-02T23:56:15.714Z,21.32
2023-03-02T23:57:19.858Z,21.34
2023-03-02T23:58:23.975Z,21.34
2023-03-02T23:59:28.177Z,21.3
